createdAt,value
2018-09-24T00:00:55.920Z,19.70
2018-09-24T00:03:25.185Z,19.70
2018-09-24T00:05:54.279Z,19.60
2018-09-24T00:08:23.295Z,19.60
2018-09-24T00:10:52.363Z,19.70
2018-09-24T00:13:21.452Z,19.70
2018-09-24T00:15:50.444Z,19.70
2018-09-24T00:18:19.435Z,19.60
2018-09-24T00:20:48.483Z,19.60
2018-09-24T00:23:17.630Z,19.60
2018-09-24T00:25:46.608Z,19.50
2018-09-24T00:28:15.721Z,19.50
2018-09-24T00:30:44.932Z,19.30
2018-09-24T00:33:14.048Z,19.20
2018-09-24T00:35:43.077Z,19.00
2018-09-24T00:38:12.100Z,18.90
2018-09-24T00:40:41.201Z,18.80
2018-09-24T00:43:10.330Z,18.70
2018-09-24T00:45:39.426Z,18.50
2018-09-24T00:48:08.574Z,18.30
2018-09-24T00:50:37.778Z,18.20
2018-09-24T00:53:07.369Z,18.00
2018-09-24T00:55:36.597Z,17.90
2018-09-24T00:58:05.922Z,17.70
2018-09-24T01:00:35.894Z,17.60
2018-09-24T01:03:05.093Z,17.50
2018-09-24T01:05:34.381Z,17.40
2018-09-24T01:08:03.371Z,17.30
2018-09-24T01:10:32.544Z,17.20
2018-09-24T01:13:01.732Z,17.10
2018-09-24T01:15:30.660Z,17.10
2018-09-24T01:17:59.672Z,16.90
2018-09-24T01:20:28.739Z,16.90
2018-09-24T01:22:57.802Z,16.70
2018-09-24T01:25:26.952Z,16.60
2018-09-24T01:27:56.052Z,16.70
2018-09-24T01:30:25.040Z,16.70
2018-09-24T01:32:54.029Z,16.60
2018-09-24T01:35:23.159Z,16.60
2018-09-24T01:37:52.420Z,16.60
2018-09-24T01:40:21.525Z,16.70
2018-09-24T01:42:50.512Z,16.70
2018-09-24T01:45:19.608Z,16.80
2018-09-24T01:47:48.724Z,16.70
2018-09-24T01:50:17.799Z,16.60
2018-09-24T01:52:46.878Z,16.50
2018-09-24T01:55:15.981Z,16.60
2018-09-24T01:57:45.080Z,16.80
2018-09-24T02:00:14.300Z,16.90
2018-09-24T02:02:43.357Z,17.00
2018-09-24T02:05:16.766Z,17.00
2018-09-24T02:07:45.863Z,17.10
2018-09-24T02:10:15.327Z,17.10
2018-09-24T02:12:44.459Z,17.20
2018-09-24T02:15:13.632Z,17.10
2018-09-24T02:17:42.768Z,17.10
2018-09-24T02:20:11.855Z,17.20
2018-09-24T02:22:40.948Z,17.10
2018-09-24T02:25:09.929Z,17.10
2018-09-24T02:27:38.924Z,17.10
2018-09-24T02:30:08.117Z,17.20
2018-09-24T02:32:37.123Z,17.20
2018-09-24T02:35:06.173Z,17.20
2018-09-24T02:37:35.254Z,17.20
2018-09-24T02:40:04.607Z,17.20
2018-09-24T02:42:33.618Z,17.20
2018-09-24T02:45:02.600Z,17.20
2018-09-24T02:47:33.608Z,17.20
2018-09-24T02:50:03.480Z,17.10
2018-09-24T02:52:32.628Z,17.10
2018-09-24T02:55:01.828Z,17.00
2018-09-24T02:57:30.927Z,16.90
2018-09-24T03:00:00.040Z,17.00
2018-09-24T03:02:29.127Z,17.00
2018-09-24T03:04:58.223Z,17.10
2018-09-24T03:07:27.199Z,17.10
2018-09-24T03:09:56.275Z,17.10
2018-09-24T03:12:25.413Z,17.10
2018-09-24T03:14:54.494Z,16.90
2018-09-24T03:17:23.540Z,16.90
2018-09-24T03:19:52.655Z,17.00
2018-09-24T03:22:25.128Z,16.90
2018-09-24T03:24:55.060Z,16.90
2018-09-24T03:27:24.773Z,16.90
2018-09-24T03:29:53.871Z,16.80
2018-09-24T03:32:22.856Z,16.70
2018-09-24T03:34:51.970Z,16.80
2018-09-24T03:37:20.980Z,16.80
2018-09-24T03:39:50.133Z,16.80
2018-09-24T03:42:19.132Z,16.80
2018-09-24T03:44:48.351Z,16.80
2018-09-24T03:47:17.415Z,16.80
2018-09-24T03:49:46.655Z,16.80
2018-09-24T03:52:15.724Z,16.80
2018-09-24T03:54:44.815Z,16.80
2018-09-24T03:57:13.804Z,16.70
2018-09-24T03:59:42.904Z,16.60
2018-09-24T04:02:12.005Z,16.50
2018-09-24T04:04:46.103Z,16.50
2018-09-24T04:07:20.376Z,16.50
2018-09-24T04:09:54.752Z,16.50
2018-09-24T04:12:29.048Z,16.50
2018-09-24T04:15:03.126Z,16.50
2018-09-24T04:17:37.408Z,16.40
2018-09-24T04:20:11.676Z,16.40
2018-09-24T04:22:45.932Z,16.40
2018-09-24T04:25:19.982Z,16.40
2018-09-24T04:27:54.123Z,16.30
2018-09-24T04:30:28.258Z,16.10
2018-09-24T04:33:02.541Z,16.10
2018-09-24T04:35:37.067Z,16.10
2018-09-24T04:38:11.240Z,16.20
2018-09-24T04:40:45.388Z,16.20
2018-09-24T04:43:19.792Z,16.30
2018-09-24T04:45:54.025Z,16.20
2018-09-24T04:48:28.368Z,16.20
2018-09-24T04:51:02.533Z,16.20
2018-09-24T04:53:36.869Z,16.00
2018-09-24T04:56:11.118Z,16.00
2018-09-24T04:58:45.097Z,15.80
2018-09-24T05:01:19.203Z,15.80
2018-09-24T05:03:53.627Z,15.80
2018-09-24T05:06:27.696Z,15.80
2018-09-24T05:09:01.887Z,15.90
2018-09-24T05:11:36.147Z,15.90
2018-09-24T05:14:10.385Z,15.70
2018-09-24T05:16:44.410Z,15.70
2018-09-24T05:19:18.813Z,15.70
2018-09-24T05:21:53.079Z,15.70
2018-09-24T05:24:27.307Z,15.70
2018-09-24T05:27:01.563Z,15.70
2018-09-24T05:29:35.611Z,15.70
2018-09-24T05:32:09.512Z,15.60
2018-09-24T05:34:43.376Z,15.50
2018-09-24T05:37:17.906Z,15.40
2018-09-24T05:39:52.201Z,15.30
2018-09-24T05:42:26.305Z,15.00
2018-09-24T05:45:00.448Z,15.00
2018-09-24T05:47:34.542Z,15.10
2018-09-24T05:50:08.792Z,15.20
2018-09-24T05:52:43.042Z,15.00
2018-09-24T05:55:17.223Z,15.10
2018-09-24T05:57:51.281Z,15.20
2018-09-24T06:00:25.356Z,15.20
2018-09-24T06:02:59.517Z,15.20
2018-09-24T06:05:33.692Z,15.20
2018-09-24T06:08:07.875Z,15.00
2018-09-24T06:10:42.018Z,15.00
2018-09-24T06:13:16.065Z,15.00
2018-09-24T06:15:50.419Z,15.00
2018-09-24T06:18:24.717Z,15.10
2018-09-24T06:20:58.839Z,15.10
2018-09-24T06:23:32.938Z,15.10
2018-09-24T06:26:07.271Z,15.10
2018-09-24T06:28:41.438Z,15.10
2018-09-24T06:31:15.846Z,15.00
2018-09-24T06:33:50.220Z,14.90
2018-09-24T06:36:24.458Z,14.90
2018-09-24T06:38:58.655Z,15.00
2018-09-24T06:41:32.748Z,15.10
2018-09-24T06:44:06.907Z,15.10
2018-09-24T06:46:41.049Z,15.00
2018-09-24T06:49:15.128Z,15.00
2018-09-24T06:51:49.417Z,15.00
2018-09-24T06:54:30.580Z,15.00
2018-09-24T06:57:04.772Z,15.00
2018-09-24T06:59:39.031Z,14.80
2018-09-24T07:02:13.385Z,14.90
2018-09-24T07:04:47.480Z,15.00
2018-09-24T07:07:21.779Z,14.90
2018-09-24T07:09:55.940Z,15.00
2018-09-24T07:12:29.996Z,15.00
2018-09-24T07:15:04.210Z,14.90
2018-09-24T07:17:38.368Z,14.90
2018-09-24T07:20:12.731Z,15.00
2018-09-24T07:22:46.924Z,15.10
2018-09-24T07:25:21.125Z,15.20
2018-09-24T07:27:55.454Z,15.20
2018-09-24T07:30:29.538Z,15.30
2018-09-24T07:33:03.949Z,15.30
2018-09-24T07:35:38.133Z,15.30
2018-09-24T07:38:12.377Z,15.40
2018-09-24T07:40:46.768Z,15.50
2018-09-24T07:43:21.071Z,15.50
2018-09-24T07:45:55.292Z,15.50
2018-09-24T07:48:29.548Z,15.50
2018-09-24T07:51:03.936Z,15.60
2018-09-24T07:53:38.234Z,15.60
2018-09-24T07:56:12.412Z,15.60
2018-09-24T07:58:46.692Z,15.50
2018-09-24T08:01:20.885Z,15.60
2018-09-24T08:03:55.224Z,15.70
2018-09-24T08:06:29.741Z,15.70
2018-09-24T08:09:04.079Z,15.80
2018-09-24T08:11:38.508Z,15.70
2018-09-24T08:14:12.605Z,15.70
2018-09-24T08:16:46.844Z,15.70
2018-09-24T08:19:21.012Z,15.80
2018-09-24T08:21:55.126Z,15.80
2018-09-24T08:24:29.412Z,15.80
2018-09-24T08:27:03.536Z,15.80
2018-09-24T08:29:37.738Z,15.80
2018-09-24T08:32:12.016Z,15.80
2018-09-24T08:34:46.279Z,15.80
2018-09-24T08:37:20.461Z,15.80
2018-09-24T08:39:54.661Z,15.80
2018-09-24T08:42:28.810Z,15.80
2018-09-24T08:45:03.121Z,15.70
2018-09-24T08:47:37.106Z,15.80
2018-09-24T08:50:11.300Z,15.80
2018-09-24T08:52:45.598Z,15.80
2018-09-24T08:55:19.964Z,15.90
2018-09-24T08:57:54.352Z,15.90
2018-09-24T09:00:28.487Z,15.90
2018-09-24T09:03:02.778Z,15.90
2018-09-24T09:05:37.085Z,16.00
2018-09-24T09:08:11.629Z,16.00
2018-09-24T09:10:46.032Z,16.10
2018-09-24T09:13:20.323Z,16.10
2018-09-24T09:15:54.672Z,16.10
2018-09-24T09:18:28.904Z,16.10
2018-09-24T09:21:03.172Z,16.10
2018-09-24T09:23:37.525Z,16.20
2018-09-24T09:26:11.724Z,16.20
2018-09-24T09:28:45.945Z,16.30
2018-09-24T09:31:20.313Z,16.30
2018-09-24T09:33:54.521Z,16.30
2018-09-24T09:36:28.757Z,16.40
2018-09-24T09:39:02.956Z,16.40
2018-09-24T09:41:37.175Z,16.50
2018-09-24T09:44:11.532Z,16.60
2018-09-24T09:46:45.810Z,16.60
2018-09-24T09:49:20.166Z,16.70
2018-09-24T09:51:54.398Z,16.70
2018-09-24T09:54:28.683Z,16.80
2018-09-24T09:57:03.024Z,16.80
2018-09-24T09:59:37.332Z,16.80
2018-09-24T10:02:11.580Z,16.90
2018-09-24T10:04:46.015Z,16.90
2018-09-24T10:07:20.164Z,16.90
2018-09-24T10:09:54.210Z,16.90
2018-09-24T10:12:28.431Z,17.00
2018-09-24T10:15:02.514Z,17.00
2018-09-24T10:17:36.906Z,17.10
2018-09-24T10:20:11.254Z,17.10
2018-09-24T10:22:45.635Z,17.10
2018-09-24T10:25:19.756Z,17.10
2018-09-24T10:27:53.987Z,17.10
2018-09-24T10:30:28.232Z,17.20
2018-09-24T10:33:02.365Z,17.20
2018-09-24T10:35:36.501Z,17.20
2018-09-24T10:38:10.761Z,17.30
2018-09-24T10:40:45.080Z,17.30
2018-09-24T10:43:19.432Z,17.30
2018-09-24T10:45:53.780Z,17.40
2018-09-24T10:48:27.928Z,17.50
2018-09-24T10:51:02.127Z,17.50
2018-09-24T10:53:36.560Z,17.60
2018-09-24T10:56:10.827Z,17.60
2018-09-24T10:58:45.085Z,17.70
2018-09-24T11:01:19.510Z,17.70
2018-09-24T11:03:53.817Z,17.70
2018-09-24T11:06:28.250Z,17.80
2018-09-24T11:09:02.588Z,17.80
2018-09-24T11:11:36.658Z,17.90
2018-09-24T11:14:11.097Z,17.90
2018-09-24T11:16:45.649Z,17.90
2018-09-24T11:19:19.680Z,18.00
2018-09-24T11:21:53.740Z,18.20
2018-09-24T11:24:27.955Z,18.20
2018-09-24T11:27:02.145Z,18.30
2018-09-24T11:29:36.348Z,18.30
2018-09-24T11:32:10.404Z,18.50
2018-09-24T11:34:44.814Z,18.50
2018-09-24T11:37:19.034Z,18.60
2018-09-24T11:39:53.295Z,18.70
2018-09-24T11:42:27.298Z,18.80
2018-09-24T11:45:01.569Z,18.90
2018-09-24T11:47:35.670Z,19.00
2018-09-24T11:50:10.084Z,19.00
2018-09-24T11:52:44.726Z,19.20
2018-09-24T11:55:19.145Z,19.10
2018-09-24T11:57:53.179Z,19.20
2018-09-24T12:00:27.453Z,19.20
2018-09-24T12:03:01.640Z,19.30
2018-09-24T12:05:35.882Z,19.50
2018-09-24T12:08:10.323Z,19.50
2018-09-24T12:10:44.444Z,19.60
2018-09-24T12:13:18.784Z,19.60
2018-09-24T12:15:53.053Z,19.60
2018-09-24T12:18:27.085Z,19.50
2018-09-24T12:21:01.394Z,19.60
2018-09-24T12:23:35.468Z,19.80
2018-09-24T12:26:09.721Z,19.90
2018-09-24T12:28:43.756Z,20.00
2018-09-24T12:31:18.013Z,20.10
2018-09-24T12:33:52.261Z,20.10
2018-09-24T12:36:26.309Z,20.20
2018-09-24T12:39:00.336Z,20.30
2018-09-24T12:41:34.720Z,20.40
2018-09-24T12:44:09.004Z,20.40
2018-09-24T12:46:43.136Z,20.60
2018-09-24T12:49:17.429Z,20.60
2018-09-24T12:51:51.768Z,20.60
2018-09-24T12:54:25.778Z,20.50
2018-09-24T12:57:00.108Z,20.50
2018-09-24T12:59:34.313Z,20.50
2018-09-24T13:02:08.608Z,20.50
2018-09-24T13:04:42.704Z,20.40
2018-09-24T13:07:16.975Z,20.30
2018-09-24T13:09:57.893Z,20.40
2018-09-24T13:12:32.211Z,20.40
2018-09-24T13:15:06.269Z,20.40
2018-09-24T13:17:40.539Z,20.40
2018-09-24T13:20:14.990Z,20.50
2018-09-24T13:22:49.305Z,20.60
2018-09-24T13:25:23.866Z,20.60
2018-09-24T13:27:58.350Z,20.60
2018-09-24T13:30:31.648Z,20.60
2018-09-24T13:33:05.160Z,20.60
2018-09-24T13:35:38.428Z,20.60
2018-09-24T13:38:11.727Z,20.60
2018-09-24T13:40:44.996Z,20.80
2018-09-24T13:43:18.375Z,20.90
2018-09-24T13:45:52.532Z,20.90
2018-09-24T13:48:26.833Z,20.80
2018-09-24T13:51:00.242Z,20.60
2018-09-24T13:53:33.639Z,20.70
2018-09-24T13:56:07.028Z,20.80
2018-09-24T13:58:40.331Z,20.80
2018-09-24T14:01:13.636Z,20.90
2018-09-24T14:03:47.115Z,21.10
2018-09-24T14:06:20.511Z,21.10
2018-09-24T14:08:53.894Z,21.10
2018-09-24T14:11:27.408Z,21.10
2018-09-24T14:14:00.813Z,21.20
2018-09-24T14:16:34.262Z,21.20
2018-09-24T14:19:07.784Z,21.20
2018-09-24T14:21:41.206Z,21.10
2018-09-24T14:24:14.656Z,21.10
2018-09-24T14:26:48.289Z,21.10
2018-09-24T14:29:21.894Z,21.10
2018-09-24T14:31:55.196Z,21.20
2018-09-24T14:34:28.574Z,21.10
2018-09-24T14:37:02.181Z,21.00
2018-09-24T14:39:35.780Z,21.10
2018-09-24T14:42:09.116Z,21.10
2018-09-24T14:44:42.451Z,21.10
2018-09-24T14:47:15.724Z,21.10
2018-09-24T14:49:49.055Z,21.00
2018-09-24T14:52:22.387Z,21.00
2018-09-24T14:54:55.955Z,21.00
2018-09-24T14:57:29.653Z,20.80
2018-09-24T15:00:03.027Z,20.90
2018-09-24T15:02:36.549Z,20.70
2018-09-24T15:05:09.837Z,20.80
2018-09-24T15:07:43.209Z,20.80
2018-09-24T15:10:17.464Z,20.80
2018-09-24T15:12:50.952Z,20.60
2018-09-24T15:15:24.343Z,20.60
2018-09-24T15:17:57.771Z,20.70
2018-09-24T15:20:31.243Z,20.70
2018-09-24T15:23:05.555Z,20.60
2018-09-24T15:25:39.606Z,20.60
2018-09-24T15:28:13.754Z,20.50
2018-09-24T15:30:48.131Z,20.50
2018-09-24T15:33:21.695Z,20.20
2018-09-24T15:35:55.295Z,20.10
2018-09-24T15:38:28.670Z,20.20
2018-09-24T15:41:02.349Z,20.20
2018-09-24T15:43:36.613Z,20.10
2018-09-24T15:46:10.970Z,20.20
2018-09-24T15:48:45.166Z,20.20
2018-09-24T15:51:19.467Z,20.10
2018-09-24T15:53:53.777Z,20.10
2018-09-24T15:56:28.001Z,20.00
2018-09-24T15:59:02.206Z,20.00
2018-09-24T16:01:36.596Z,19.80
2018-09-24T16:04:10.823Z,19.70
2018-09-24T16:06:44.987Z,19.30
2018-09-24T16:09:19.398Z,19.00
2018-09-24T16:11:53.597Z,19.00
2018-09-24T16:14:27.979Z,19.00
2018-09-24T16:17:02.299Z,19.00
2018-09-24T16:19:36.435Z,18.80
2018-09-24T16:22:10.770Z,18.60
2018-09-24T16:24:44.830Z,18.60
2018-09-24T16:27:18.871Z,18.60
2018-09-24T16:29:52.899Z,18.50
2018-09-24T16:32:27.194Z,18.50
2018-09-24T16:35:01.404Z,18.40
2018-09-24T16:37:35.862Z,18.30
2018-09-24T16:40:10.025Z,18.20
2018-09-24T16:42:44.193Z,18.10
2018-09-24T16:45:18.471Z,18.10
2018-09-24T16:47:52.746Z,18.00
2018-09-24T16:50:27.220Z,17.60
2018-09-24T16:53:01.511Z,17.20
2018-09-24T16:55:35.668Z,17.20
2018-09-24T16:58:09.862Z,17.20
2018-09-24T17:00:44.166Z,16.70
2018-09-24T17:03:18.484Z,16.20
2018-09-24T17:05:52.823Z,16.10
2018-09-24T17:08:27.037Z,16.30
2018-09-24T17:11:01.242Z,16.10
2018-09-24T17:13:35.424Z,15.80
2018-09-24T17:16:09.694Z,15.70
2018-09-24T17:18:44.021Z,16.10
2018-09-24T17:21:18.155Z,16.20
2018-09-24T17:23:52.316Z,16.10
2018-09-24T17:26:26.439Z,15.90
2018-09-24T17:29:00.800Z,15.90
2018-09-24T17:31:35.069Z,15.60
2018-09-24T17:34:09.549Z,15.70
2018-09-24T17:36:43.763Z,15.40
2018-09-24T17:39:18.073Z,15.10
2018-09-24T17:41:56.267Z,15.10
2018-09-24T17:44:32.530Z,15.00
2018-09-24T17:47:08.309Z,15.00
2018-09-24T17:49:42.909Z,14.80
2018-09-24T17:52:17.523Z,14.90
2018-09-24T17:54:51.704Z,14.90
2018-09-24T17:57:25.820Z,15.00
2018-09-24T18:00:00.252Z,15.10
2018-09-24T18:02:34.476Z,15.00
2018-09-24T18:05:08.692Z,15.10
2018-09-24T18:07:42.881Z,15.00
2018-09-24T18:10:17.310Z,15.10
2018-09-24T18:12:51.402Z,15.00
2018-09-24T18:15:25.518Z,15.10
2018-09-24T18:17:59.570Z,15.10
2018-09-24T18:20:34.072Z,15.10
2018-09-24T18:23:08.248Z,15.10
2018-09-24T18:25:42.262Z,15.10
2018-09-24T18:28:16.496Z,15.10
2018-09-24T18:30:50.658Z,15.10
2018-09-24T18:33:24.808Z,14.90
2018-09-24T18:35:58.977Z,14.90
2018-09-24T18:38:32.977Z,15.00
2018-09-24T18:41:07.314Z,14.90
2018-09-24T18:43:41.522Z,14.90
2018-09-24T18:46:15.897Z,14.90
2018-09-24T18:48:49.983Z,14.90
2018-09-24T18:51:24.086Z,14.80
2018-09-24T18:53:58.236Z,14.80
2018-09-24T18:56:32.582Z,14.60
2018-09-24T18:59:06.660Z,14.60
2018-09-24T19:01:40.987Z,14.60
2018-09-24T19:04:15.261Z,14.50
2018-09-24T19:06:49.398Z,14.60
2018-09-24T19:09:23.710Z,14.50
2018-09-24T19:11:57.869Z,14.50
2018-09-24T19:14:31.983Z,14.40
2018-09-24T19:17:06.217Z,14.40
2018-09-24T19:19:40.584Z,14.40
2018-09-24T19:22:14.797Z,14.30
2018-09-24T19:24:49.217Z,14.30
2018-09-24T19:27:23.508Z,14.10
2018-09-24T19:29:57.731Z,14.00
2018-09-24T19:32:31.860Z,13.90
2018-09-24T19:35:06.239Z,13.80
2018-09-24T19:37:40.633Z,13.90
2018-09-24T19:40:14.760Z,13.90
2018-09-24T19:42:49.032Z,13.80
2018-09-24T19:45:23.244Z,13.80
2018-09-24T19:47:57.440Z,13.80
2018-09-24T19:50:31.979Z,13.50
2018-09-24T19:53:06.236Z,13.40
2018-09-24T19:55:40.355Z,13.30
2018-09-24T19:58:14.719Z,13.40
2018-09-24T20:00:48.941Z,13.40
2018-09-24T20:03:23.156Z,13.40
2018-09-24T20:05:57.478Z,13.40
2018-09-24T20:08:31.693Z,13.30
2018-09-24T20:11:05.980Z,13.20
2018-09-24T20:13:40.089Z,13.10
2018-09-24T20:16:14.183Z,12.90
2018-09-24T20:18:48.548Z,13.00
2018-09-24T20:21:22.834Z,13.00
2018-09-24T20:23:56.993Z,12.50
2018-09-24T20:26:30.957Z,12.60
2018-09-24T20:29:05.307Z,12.70
2018-09-24T20:31:39.501Z,12.50
2018-09-24T20:34:13.892Z,12.40
2018-09-24T20:36:47.990Z,12.50
2018-09-24T20:39:22.036Z,12.60
2018-09-24T20:41:56.177Z,12.60
2018-09-24T20:44:30.489Z,12.60
2018-09-24T20:47:04.772Z,12.60
2018-09-24T20:49:38.841Z,12.50
2018-09-24T20:52:13.238Z,12.40
2018-09-24T20:54:47.488Z,12.40
2018-09-24T20:57:21.677Z,12.40
2018-09-24T20:59:55.781Z,12.40
2018-09-24T21:02:30.046Z,12.30
2018-09-24T21:05:04.246Z,12.30
2018-09-24T21:07:38.381Z,12.20
2018-09-24T21:10:12.883Z,12.20
2018-09-24T21:12:46.877Z,12.10
2018-09-24T21:15:21.068Z,12.00
2018-09-24T21:17:55.387Z,11.90
2018-09-24T21:20:29.754Z,12.00
2018-09-24T21:23:03.998Z,12.00
2018-09-24T21:25:38.544Z,11.90
2018-09-24T21:28:12.804Z,11.90
2018-09-24T21:30:47.040Z,11.80
2018-09-24T21:33:21.200Z,11.80
2018-09-24T21:35:55.416Z,11.70
2018-09-24T21:38:29.613Z,11.70
2018-09-24T21:41:04.033Z,11.40
2018-09-24T21:43:38.229Z,11.30
2018-09-24T21:46:12.623Z,11.30
2018-09-24T21:48:46.676Z,11.30
2018-09-24T21:51:20.932Z,11.30
2018-09-24T21:53:55.048Z,11.30
2018-09-24T21:56:29.320Z,11.20
2018-09-24T21:59:03.331Z,11.10
2018-09-24T22:01:37.547Z,11.20
2018-09-24T22:04:11.727Z,11.20
2018-09-24T22:06:45.852Z,10.80
2018-09-24T22:09:19.989Z,10.90
2018-09-24T22:11:54.158Z,11.00
2018-09-24T22:14:28.189Z,11.00
2018-09-24T22:17:02.335Z,11.10
2018-09-24T22:19:36.423Z,11.00
2018-09-24T22:22:10.839Z,10.90
2018-09-24T22:24:45.202Z,10.90
2018-09-24T22:27:19.257Z,10.80
2018-09-24T22:29:53.311Z,10.80
2018-09-24T22:32:27.532Z,10.80
2018-09-24T22:35:01.927Z,10.80
2018-09-24T22:37:36.173Z,10.80
2018-09-24T22:40:10.765Z,10.70
2018-09-24T22:42:45.100Z,10.70
2018-09-24T22:45:19.159Z,10.80
2018-09-24T22:47:53.336Z,10.70
2018-09-24T22:50:27.529Z,10.60
2018-09-24T22:53:01.792Z,10.60
2018-09-24T22:55:35.950Z,10.50
2018-09-24T22:58:10.474Z,10.50
2018-09-24T23:00:44.704Z,10.50
2018-09-24T23:03:18.811Z,10.40
2018-09-24T23:05:53.117Z,10.30
2018-09-24T23:08:27.379Z,10.30
2018-09-24T23:11:01.400Z,10.10
2018-09-24T23:13:35.764Z,10.20
2018-09-24T23:16:09.961Z,10.20
2018-09-24T23:18:44.072Z,10.30
2018-09-24T23:21:18.512Z,10.30
2018-09-24T23:23:52.631Z,10.30
2018-09-24T23:26:26.760Z,10.20
2018-09-24T23:29:01.053Z,10.20
2018-09-24T23:31:35.212Z,10.20
2018-09-24T23:34:09.312Z,10.00
2018-09-24T23:36:43.455Z,9.90
2018-09-24T23:39:17.699Z,9.80
2018-09-24T23:41:51.880Z,9.40
2018-09-24T23:44:26.339Z,9.40
2018-09-24T23:47:00.389Z,9.60
2018-09-24T23:49:34.567Z,9.70
2018-09-24T23:52:08.622Z,9.70
2018-09-24T23:54:42.994Z,9.70
2018-09-24T23:57:17.040Z,9.80
2018-09-24T23:59:51.230Z,9.70
